Snohomish, WA

5:17 AM PDT on September 17, 2014 (GMT -0700)
Silver Lake | Change Station
CLOSE
Current Station
Personal Weather Station
Location: Everett, WA
Elevation: 443 ft
Nearby Weather Stations
4.0 Earthquake: Seabeck, Washington (2 hours ago)  

Elev 443 ft 47.88 °N, 122.20 °W | Updated 3 minutes ago

Partly Cloudy
Partly Cloudy
59.8 °F
Feels Like 59.8 °F
N
0.0
Wind Variable Wind from ESE
Gusts 0.0 mph

Today
High -- | Low -- °F
--% Chance of Precip.
Yesterday
High -- | Low -- °F
Precip. -- in
6:48 AM 7:16 PM
Last Quarter, 36% visible
Pressure 29.81 in
Visibility 10.0 miles
Clouds Few 8000 ft
Mostly Cloudy 11000 ft
Dew Point 55 °F
Humidity 84%
Rainfall 0.00 in
Snow Depth 0 in , 0 in , 0 in
UV 0 out of 12
Pollen 1.70 out of 12
PM2.5 Moderate
Flu Activity Not available.
METAR KPAE 171153Z AUTO 01004KT 10SM -RA FEW080 BKN110 14/12 A2981 RMK AO2 RAB53 SLP092 P0000 60000 T01440117 10167 20144 58016

More Conditions Fewer Conditions

Pressure 29.81 in
Visibility 10.0 miles
Clouds Few 8000 ft
Mostly Cloudy 11000 ft
Dew Point 55 °F
Humidity 84%
Rainfall 0.00 in
Snow Depth 0 in , 0 in , 0 in
UV 0 out of 12
Pollen 1.70 out of 12
PM2.5 Moderate
Flu Activity Not available.
METAR KPAE 171153Z AUTO 01004KT 10SM -RA FEW080 BKN110 14/12 A2981 RMK AO2 RAB53 SLP092 P0000 60000 T01440117 10167 20144 58016

More Conditions Fewer Conditions

10-Day Weather Forecast

Almanac

Astronomy

Sep. 17, 2014 Rise Set
Actual Time 6:48 AM PDT 7:16 PM PDT
Civil Twilight 6:17 AM PDT 7:47 PM PDT
Nautical Twilight 5:40 AM PDT 8:24 PM PDT
Astronomical Twilight 5:01 AM PDT 9:02 PM PDT
Moon 12:34 AM PDT 3:47 PM PDT
Length of Visible Light 13h 30m
Length of Day
12h 27m
Tomorrow will be 3m 26s shorter.
Last Quarter, 36% of the Moon is Illuminated
Today
Last Quarter
Sep 24
New
Oct 1
First Quarter
Oct 8
Full
Oct 15
Last Quarter

Today's Extremes

State Highs State Lows

Community

WunderPhotos

Upload Photos

1,754,008 photos uploaded!

Nearby

Air Quality

  Air Quality AQ Index Pollutant
Yesterday Moderate
PM2.5
Yesterday Good
OZONE
Current Moderate
PM2.5
Tuesday Good
OZONE
Tuesday Good
PM2.5
Wednesday Good
OZONE
Wednesday Good
PM2.5
Thursday Good
OZONE
Thursday Good
PM2.5
Friday Good
OZONE
Friday Good
PM2.5
Saturday Good
OZONE
Saturday Good
PM2.5

Snow Depth

Station Depth Elevation
Spirit Lake 0 in 3120 ft
Elbow Lake 0 in 3200 ft
Park Creek Ridge 0 in 4600 ft
Sourdough Gulch 0 in 4000 ft
Trough 0 in 5300 ft

Earthquake Activity

City Distance Mag. Time & Date
Seabeck, Washington 48 miles 4.0 3:06 AM PDT
2014-09-17
Morton, Washington 111 miles 3.0 5:43 AM PDT
2014-09-16
Minimum magnitude displayed is 2.5.

Coastal Water Temperatures

Place Temperature
Port Townsend, WA 52.0 °F
Seattle, WA 55.9 °F
Friday Harbor, WA 53.1 °F
Tacoma, WA 55.9 °F

Nearby Weather Stations